x

Sand Key, Fl (sanf1) Weather Station

8:50am - Thu 22nd Jun 2017 All times are CDT. -4 hours from GMT.

  • Wind
    18mph, 21mph gusts
  • Air Temp 83°f
  • Sea Pressure 1017.3mb
  • Sand Key, Fl
  • Sand Key, Fl

More Historic Weather Station data

Upgrade to MSW Pro to gain access to the past 30 days of data for over 8000 Wavebouys and Weather Stations around the globe.

Join Pro

Comparision Forecast

View Surf forecast
   
Thu 06/22 8:50am 18 21 mph 1017.3mb 83f
7:50am 20 22 mph 1016.9mb 83f
6:50am 18 22 mph 1016.5mb 82f
5:50am 16 17 mph 1016.6mb 82f
4:50am 20 22 mph 1016.4mb 82f
3:50am 22 25 mph 1016.9mb 83f
2:50am 20 23 mph 1017.1mb 83f
1:50am 17 20 mph 1017.4mb 82f
12:50am 17 20 mph 1017.6mb 83f
Wed 06/21 11:50pm 18 21 mph 1017.8mb 83f
10:50pm 21 23 mph 1017.6mb 83f
9:50pm 20 23 mph 1017.2mb 83f
8:50pm 18 21 mph 1016.6mb 83f
7:50pm 17 21 mph 1015.8mb 83f
6:50pm 16 17 mph 1015.4mb 83f
5:50pm 18 22 mph 1015.3mb 83f
4:50pm 21 22 mph 1015.2mb 83f
3:50pm 21 24 mph 1015.5mb 83f
2:50pm 20 23 mph 1016mb 83f
1:50pm 20 22 mph 1016.1mb 83f
12:50pm 18 22 mph 1016.4mb 82f
11:50am 20 22 mph 1016.5mb 83f
10:50am 21 24 mph 1016.3mb 83f
9:50am 22 24 mph 1016.2mb 82f
8:50am 21 24 mph 1015.7mb 82f
7:50am 21 23 mph 1015.4mb 82f
6:50am 17 20 mph 1014.9mb 82f
5:50am 17 20 mph 1014.5mb 82f
4:50am 18 22 mph 1014.2mb 82f
3:50am 21 24 mph 1014.2mb 82f
2:50am 20 22 mph 1014.1mb 81f
1:50am 28 33 mph 1014.4mb 81f
12:50am 26 30 mph 1015.2mb 81f
Tue 06/20 11:50pm 22 25 mph 1015.4mb 82f
10:50pm 22 25 mph 1015.3mb 83f
9:50pm 21 24 mph 1014.9mb 83f
8:50pm 22 25 mph 1014mb 83f
7:50pm 21 24 mph 1013.3mb 83f
6:50pm 21 24 mph 1013.1mb 83f
5:50pm 22 26 mph 1012.8mb 83f
4:50pm 22 24 mph 1013.1mb 82f
3:50pm 21 23 mph 1013.6mb 83f
2:50pm 23 25 mph 1014.3mb 83f
1:50pm 23 28 mph 1014.7mb 83f
12:50pm 25 28 mph 1014.7mb 83f
11:50am 25 30 mph 1014.8mb 83f
10:50am 26 30 mph 1014.8mb 82f
9:50am 26 32 mph 1014.8mb 82f
8:50am 26 31 mph 1014.7mb 82f
7:50am 25 29 mph 1014.1mb 82f
6:50am 25 28 mph 1014mb 82f
5:50am 28 31 mph 1013.6mb 82f
3:50am 25 30 mph 1013.6mb 82f
2:50am 28 30 mph 1013.7mb 82f
1:50am 24 29 mph 1014.4mb 82f
12:50am 22 25 mph 1014.9mb 82f
Mon 06/19 11:50pm 21 23 mph 1014.9mb 82f
10:50pm 22 25 mph 1014.8mb 82f
9:50pm 23 24 mph 1014.1mb 82f
8:50pm 23 26 mph 1013.5mb 83f
7:50pm 22 25 mph 1013.4mb 83f
6:50pm 21 24 mph 1013.2mb 82f
5:50pm 22 25 mph 1013.1mb 83f
4:50pm 22 25 mph 1013mb 82f
3:50pm 22 25 mph 1013.4mb 83f
2:50pm 24 29 mph 1013.9mb 83f
1:50pm 28 32 mph 1013.9mb 83f
12:50pm 30 36 mph 1014mb 83f
11:50am 29 31 mph 1013.9mb 82f
10:50am 26 32 mph 1014mb 82f
9:50am 25 30 mph 1014mb 82f
8:50am 23 26 mph 1013.8mb 79f
7:50am 25 29 mph 1013.3mb 82f
6:50am 26 30 mph 1012.6mb 82f
5:50am 26 30 mph 1012.3mb 82f
4:50am 23 25 mph 1012.2mb 82f
3:50am 20 23 mph 1012.2mb 82f
2:50am 21 24 mph 1012.6mb 81f
1:50am 23 25 mph 1013.3mb 82f
12:50am 24 29 mph 1013.9mb 82f
Sun 06/18 11:50pm 26 30 mph 1014.2mb 82f
10:50pm 23 28 mph 1013.9mb 81f
9:50pm 24 29 mph 1013.9mb 81f
8:50pm 25 30 mph 1013.4mb 82f
7:50pm 22 26 mph 1012.8mb 81f
6:50pm 23 26 mph 1012.6mb 79f
5:50pm 28 32 mph 1012.6mb 78f
4:50pm 24 28 mph 1012.7mb 77f
3:50pm 23 26 mph 1012.8mb 79f
2:50pm 26 32 mph 1012.8mb 83f